sensor_id;sensor_type;location;lat;lon;timestamp;temperature;humidity
21823;DHT22;11074;48.596;9.238;2022-08-03T00:01:55;19.80;99.90
21823;DHT22;11074;48.596;9.238;2022-08-03T00:04:20;19.70;99.90
21823;DHT22;11074;48.596;9.238;2022-08-03T00:06:46;19.60;99.90
21823;DHT22;11074;48.596;9.238;2022-08-03T00:09:11;19.50;99.90
21823;DHT22;11074;48.596;9.238;2022-08-03T00:11:37;19.50;99.90
21823;DHT22;11074;48.596;9.238;2022-08-03T00:14:05;19.50;99.90
21823;DHT22;11074;48.596;9.238;2022-08-03T00:16:30;19.50;99.90
21823;DHT22;11074;48.596;9.238;2022-08-03T00:18:56;19.40;99.90
21823;DHT22;11074;48.596;9.238;2022-08-03T00:21:22;19.40;99.90
21823;DHT22;11074;48.596;9.238;2022-08-03T00:23:48;19.50;99.90
21823;DHT22;11074;48.596;9.238;2022-08-03T00:26:14;19.40;99.90
21823;DHT22;11074;48.596;9.238;2022-08-03T00:28:39;19.20;99.90
21823;DHT22;11074;48.596;9.238;2022-08-03T00:31:06;19.20;99.90
21823;DHT22;11074;48.596;9.238;2022-08-03T00:33:32;19.10;99.90
21823;DHT22;11074;48.596;9.238;2022-08-03T00:35:58;19.00;99.90
21823;DHT22;11074;48.596;9.238;2022-08-03T00:38:24;18.80;99.90
21823;DHT22;11074;48.596;9.238;2022-08-03T00:40:50;18.80;99.90
21823;DHT22;11074;48.596;9.238;2022-08-03T00:43:15;19.00;99.90
21823;DHT22;11074;48.596;9.238;2022-08-03T00:45:42;19.10;99.90
21823;DHT22;11074;48.596;9.238;2022-08-03T00:48:10;19.00;99.90
21823;DHT22;11074;48.596;9.238;2022-08-03T00:50:41;18.90;99.90
21823;DHT22;11074;48.596;9.238;2022-08-03T00:53:10;18.70;99.90
21823;DHT22;11074;48.596;9.238;2022-08-03T00:55:42;18.80;99.90
21823;DHT22;11074;48.596;9.238;2022-08-03T00:58:08;18.80;99.90
21823;DHT22;11074;48.596;9.238;2022-08-03T01:00:37;18.80;99.90
21823;DHT22;11074;48.596;9.238;2022-08-03T01:03:09;18.80;99.90
21823;DHT22;11074;48.596;9.238;2022-08-03T01:05:57;18.70;99.90
21823;DHT22;11074;48.596;9.238;2022-08-03T01:09:10;18.70;99.90
21823;DHT22;11074;48.596;9.238;2022-08-03T01:11:52;18.70;99.90
21823;DHT22;11074;48.596;9.238;2022-08-03T01:14:43;18.60;99.90
21823;DHT22;11074;48.596;9.238;2022-08-03T01:17:27;18.50;99.90
21823;DHT22;11074;48.596;9.238;2022-08-03T01:20:02;18.40;99.90
21823;DHT22;11074;48.596;9.238;2022-08-03T01:25:58;18.50;99.90
21823;DHT22;11074;48.596;9.238;2022-08-03T01:31:38;18.80;99.90
21823;DHT22;11074;48.596;9.238;2022-08-03T01:34:09;18.70;99.90
21823;DHT22;11074;48.596;9.238;2022-08-03T01:36:43;18.60;99.90
21823;DHT22;11074;48.596;9.238;2022-08-03T01:39:18;18.60;99.90
21823;DHT22;11074;48.596;9.238;2022-08-03T01:41:51;18.70;99.90
21823;DHT22;11074;48.596;9.238;2022-08-03T01:44:26;18.40;99.90
21823;DHT22;11074;48.596;9.238;2022-08-03T01:46:59;18.20;99.90
21823;DHT22;11074;48.596;9.238;2022-08-03T01:49:29;18.10;99.90
21823;DHT22;11074;48.596;9.238;2022-08-03T01:51:57;18.20;99.90
21823;DHT22;11074;48.596;9.238;2022-08-03T01:54:25;18.20;99.90
21823;DHT22;11074;48.596;9.238;2022-08-03T01:56:54;18.10;99.90
21823;DHT22;11074;48.596;9.238;2022-08-03T01:59:24;18.10;99.90
21823;DHT22;11074;48.596;9.238;2022-08-03T02:01:53;18.10;99.90
21823;DHT22;11074;48.596;9.238;2022-08-03T02:04:20;18.10;99.90
21823;DHT22;11074;48.596;9.238;2022-08-03T02:06:49;18.00;99.90
21823;DHT22;11074;48.596;9.238;2022-08-03T02:09:17;18.00;99.90
21823;DHT22;11074;48.596;9.238;2022-08-03T02:11:46;18.00;99.90
21823;DHT22;11074;48.596;9.238;2022-08-03T02:14:13;17.90;99.90
21823;DHT22;11074;48.596;9.238;2022-08-03T02:16:40;17.80;99.90
21823;DHT22;11074;48.596;9.238;2022-08-03T02:19:08;17.70;99.90
21823;DHT22;11074;48.596;9.238;2022-08-03T02:21:36;17.60;99.90
21823;DHT22;11074;48.596;9.238;2022-08-03T02:24:04;17.80;99.90
21823;DHT22;11074;48.596;9.238;2022-08-03T02:26:31;17.70;99.90
21823;DHT22;11074;48.596;9.238;2022-08-03T02:29:02;17.60;99.90
21823;DHT22;11074;48.596;9.238;2022-08-03T02:31:33;17.50;99.90
21823;DHT22;11074;48.596;9.238;2022-08-03T02:34:05;17.50;99.90
21823;DHT22;11074;48.596;9.238;2022-08-03T02:36:38;17.60;99.90
21823;DHT22;11074;48.596;9.238;2022-08-03T02:39:08;17.60;99.90
21823;DHT22;11074;48.596;9.238;2022-08-03T02:41:50;17.70;99.90
21823;DHT22;11074;48.596;9.238;2022-08-03T02:44:23;17.80;99.90
21823;DHT22;11074;48.596;9.238;2022-08-03T02:46:54;17.70;99.90
21823;DHT22;11074;48.596;9.238;2022-08-03T02:49:25;17.50;99.90
21823;DHT22;11074;48.596;9.238;2022-08-03T02:51:54;17.50;99.90
21823;DHT22;11074;48.596;9.238;2022-08-03T02:54:23;17.50;99.90
21823;DHT22;11074;48.596;9.238;2022-08-03T02:56:53;17.50;99.90
21823;DHT22;11074;48.596;9.238;2022-08-03T02:59:22;17.40;99.90
21823;DHT22;11074;48.596;9.238;2022-08-03T03:01:49;17.30;99.90
21823;DHT22;11074;48.596;9.238;2022-08-03T03:04:16;17.30;99.90
21823;DHT22;11074;48.596;9.238;2022-08-03T03:06:43;17.40;99.90
21823;DHT22;11074;48.596;9.238;2022-08-03T03:09:10;17.50;99.90
21823;DHT22;11074;48.596;9.238;2022-08-03T03:11:37;17.60;99.90
21823;DHT22;11074;48.596;9.238;2022-08-03T03:14:05;17.40;99.90
21823;DHT22;11074;48.596;9.238;2022-08-03T03:16:34;17.20;99.90
21823;DHT22;11074;48.596;9.238;2022-08-03T03:19:00;17.00;99.90
21823;DHT22;11074;48.596;9.238;2022-08-03T03:21:28;17.00;99.90
21823;DHT22;11074;48.596;9.238;2022-08-03T03:23:56;17.00;99.90
21823;DHT22;11074;48.596;9.238;2022-08-03T03:26:23;17.10;99.90
21823;DHT22;11074;48.596;9.238;2022-08-03T03:28:49;17.20;99.90
21823;DHT22;11074;48.596;9.238;2022-08-03T03:31:14;17.20;99.90
21823;DHT22;11074;48.596;9.238;2022-08-03T03:33:40;17.10;99.90
21823;DHT22;11074;48.596;9.238;2022-08-03T03:36:07;17.00;99.90
21823;DHT22;11074;48.596;9.238;2022-08-03T03:38:33;17.00;99.90
21823;DHT22;11074;48.596;9.238;2022-08-03T03:40:59;17.10;99.90
21823;DHT22;11074;48.596;9.238;2022-08-03T03:43:25;17.20;99.90
21823;DHT22;11074;48.596;9.238;2022-08-03T03:45:52;17.30;99.90
21823;DHT22;11074;48.596;9.238;2022-08-03T03:48:19;17.10;99.90
21823;DHT22;11074;48.596;9.238;2022-08-03T03:50:45;17.20;99.90
21823;DHT22;11074;48.596;9.238;2022-08-03T03:53:13;17.30;99.90
21823;DHT22;11074;48.596;9.238;2022-08-03T03:55:40;17.20;99.90
21823;DHT22;11074;48.596;9.238;2022-08-03T03:58:06;17.10;99.90
21823;DHT22;11074;48.596;9.238;2022-08-03T04:00:32;17.00;99.90
21823;DHT22;11074;48.596;9.238;2022-08-03T04:02:58;17.00;99.90
21823;DHT22;11074;48.596;9.238;2022-08-03T04:05:24;17.10;99.90
21823;DHT22;11074;48.596;9.238;2022-08-03T04:08:12;17.20;99.90
21823;DHT22;11074;48.596;9.238;2022-08-03T04:11:02;17.20;99.90
21823;DHT22;11074;48.596;9.238;2022-08-03T04:13:54;17.30;99.90
21823;DHT22;11074;48.596;9.238;2022-08-03T04:16:26;17.40;99.90
21823;DHT22;11074;48.596;9.238;2022-08-03T04:19:01;17.40;99.90
21823;DHT22;11074;48.596;9.238;2022-08-03T04:21:34;17.20;99.90
21823;DHT22;11074;48.596;9.238;2022-08-03T04:24:06;17.00;99.90
21823;DHT22;11074;48.596;9.238;2022-08-03T04:26:39;16.90;99.90
21823;DHT22;11074;48.596;9.238;2022-08-03T04:29:06;17.00;99.90
21823;DHT22;11074;48.596;9.238;2022-08-03T04:31:35;16.90;99.90
21823;DHT22;11074;48.596;9.238;2022-08-03T04:34:04;16.90;99.90
21823;DHT22;11074;48.596;9.238;2022-08-03T04:36:32;16.70;99.90
21823;DHT22;11074;48.596;9.238;2022-08-03T04:39:09;16.60;99.90
21823;DHT22;11074;48.596;9.238;2022-08-03T04:41:40;16.70;99.90
21823;DHT22;11074;48.596;9.238;2022-08-03T04:44:09;16.90;99.90
21823;DHT22;11074;48.596;9.238;2022-08-03T04:46:37;17.10;99.90
21823;DHT22;11074;48.596;9.238;2022-08-03T04:49:05;17.10;99.90
21823;DHT22;11074;48.596;9.238;2022-08-03T04:51:32;17.10;99.90
21823;DHT22;11074;48.596;9.238;2022-08-03T04:53:59;17.30;99.90
21823;DHT22;11074;48.596;9.238;2022-08-03T04:56:26;17.40;99.90
21823;DHT22;11074;48.596;9.238;2022-08-03T04:58:52;17.60;99.90
21823;DHT22;11074;48.596;9.238;2022-08-03T05:01:18;17.50;99.90
21823;DHT22;11074;48.596;9.238;2022-08-03T05:03:47;17.60;99.90
21823;DHT22;11074;48.596;9.238;2022-08-03T05:06:13;17.60;99.90
21823;DHT22;11074;48.596;9.238;2022-08-03T05:08:39;17.70;99.90
21823;DHT22;11074;48.596;9.238;2022-08-03T05:11:04;17.70;99.90
21823;DHT22;11074;48.596;9.238;2022-08-03T05:13:30;17.80;99.90
21823;DHT22;11074;48.596;9.238;2022-08-03T05:15:56;17.80;99.90
21823;DHT22;11074;48.596;9.238;2022-08-03T05:18:22;18.00;99.90
21823;DHT22;11074;48.596;9.238;2022-08-03T05:20:47;18.00;99.90
21823;DHT22;11074;48.596;9.238;2022-08-03T05:23:13;18.10;99.90
21823;DHT22;11074;48.596;9.238;2022-08-03T05:25:39;18.20;99.90
21823;DHT22;11074;48.596;9.238;2022-08-03T05:28:04;18.20;99.90
21823;DHT22;11074;48.596;9.238;2022-08-03T05:30:30;18.30;99.90
21823;DHT22;11074;48.596;9.238;2022-08-03T05:32:56;18.30;99.90
21823;DHT22;11074;48.596;9.238;2022-08-03T05:35:22;18.30;99.90
21823;DHT22;11074;48.596;9.238;2022-08-03T05:37:49;18.30;99.90
21823;DHT22;11074;48.596;9.238;2022-08-03T05:40:15;18.40;99.90
21823;DHT22;11074;48.596;9.238;2022-08-03T05:42:41;18.50;99.90
21823;DHT22;11074;48.596;9.238;2022-08-03T05:45:07;18.60;99.90
21823;DHT22;11074;48.596;9.238;2022-08-03T05:47:40;18.60;99.90
21823;DHT22;11074;48.596;9.238;2022-08-03T05:50:09;18.70;99.90
21823;DHT22;11074;48.596;9.238;2022-08-03T05:52:37;18.70;99.90
21823;DHT22;11074;48.596;9.238;2022-08-03T05:55:05;18.80;99.90
21823;DHT22;11074;48.596;9.238;2022-08-03T05:57:32;18.80;99.90
21823;DHT22;11074;48.596;9.238;2022-08-03T05:59:58;18.80;99.90
21823;DHT22;11074;48.596;9.238;2022-08-03T06:02:25;18.80;99.90
21823;DHT22;11074;48.596;9.238;2022-08-03T06:04:51;18.90;99.90
21823;DHT22;11074;48.596;9.238;2022-08-03T06:07:16;18.90;99.90
21823;DHT22;11074;48.596;9.238;2022-08-03T06:09:42;18.90;99.90
21823;DHT22;11074;48.596;9.238;2022-08-03T06:12:08;19.00;99.90
21823;DHT22;11074;48.596;9.238;2022-08-03T06:14:34;19.00;99.90
21823;DHT22;11074;48.596;9.238;2022-08-03T06:16:59;19.00;99.90
21823;DHT22;11074;48.596;9.238;2022-08-03T06:19:25;19.00;99.90
21823;DHT22;11074;48.596;9.238;2022-08-03T06:21:51;19.00;99.90
21823;DHT22;11074;48.596;9.238;2022-08-03T06:24:17;19.20;99.90
21823;DHT22;11074;48.596;9.238;2022-08-03T06:26:43;19.20;99.90
21823;DHT22;11074;48.596;9.238;2022-08-03T06:29:08;19.30;99.90
21823;DHT22;11074;48.596;9.238;2022-08-03T06:31:34;19.40;99.90
21823;DHT22;11074;48.596;9.238;2022-08-03T06:34:02;19.30;99.90
21823;DHT22;11074;48.596;9.238;2022-08-03T06:36:28;19.40;99.90
21823;DHT22;11074;48.596;9.238;2022-08-03T06:38:59;19.50;99.90
21823;DHT22;11074;48.596;9.238;2022-08-03T06:41:25;19.50;99.90
21823;DHT22;11074;48.596;9.238;2022-08-03T06:43:52;19.60;99.90
21823;DHT22;11074;48.596;9.238;2022-08-03T06:46:19;19.70;99.90
21823;DHT22;11074;48.596;9.238;2022-08-03T06:48:45;19.70;99.90
21823;DHT22;11074;48.596;9.238;2022-08-03T06:51:11;19.80;99.90
21823;DHT22;11074;48.596;9.238;2022-08-03T06:53:37;20.00;99.90
21823;DHT22;11074;48.596;9.238;2022-08-03T06:56:06;20.10;99.90
21823;DHT22;11074;48.596;9.238;2022-08-03T06:58:33;20.10;99.90
21823;DHT22;11074;48.596;9.238;2022-08-03T07:00:59;20.10;99.90
21823;DHT22;11074;48.596;9.238;2022-08-03T07:03:25;20.20;99.90
21823;DHT22;11074;48.596;9.238;2022-08-03T07:05:51;20.30;99.90
21823;DHT22;11074;48.596;9.238;2022-08-03T07:08:17;20.20;99.90
21823;DHT22;11074;48.596;9.238;2022-08-03T07:10:44;20.30;99.90
21823;DHT22;11074;48.596;9.238;2022-08-03T07:13:10;20.50;99.90
21823;DHT22;11074;48.596;9.238;2022-08-03T07:15:36;20.50;99.90
21823;DHT22;11074;48.596;9.238;2022-08-03T07:18:02;20.60;99.90
21823;DHT22;11074;48.596;9.238;2022-08-03T07:20:28;20.70;99.90
21823;DHT22;11074;48.596;9.238;2022-08-03T07:22:54;20.80;99.90
21823;DHT22;11074;48.596;9.238;2022-08-03T07:25:20;20.80;99.90
21823;DHT22;11074;48.596;9.238;2022-08-03T07:27:48;20.90;99.90
21823;DHT22;11074;48.596;9.238;2022-08-03T07:30:14;21.00;99.90
21823;DHT22;11074;48.596;9.238;2022-08-03T07:32:41;21.00;99.90
21823;DHT22;11074;48.596;9.238;2022-08-03T07:35:08;21.00;99.90
21823;DHT22;11074;48.596;9.238;2022-08-03T07:37:35;21.10;99.90
21823;DHT22;11074;48.596;9.238;2022-08-03T07:40:03;21.10;99.90
21823;DHT22;11074;48.596;9.238;2022-08-03T07:42:30;21.30;99.90
21823;DHT22;11074;48.596;9.238;2022-08-03T07:44:56;21.30;99.90
21823;DHT22;11074;48.596;9.238;2022-08-03T07:47:25;21.40;99.90
21823;DHT22;11074;48.596;9.238;2022-08-03T07:49:52;21.40;99.90
21823;DHT22;11074;48.596;9.238;2022-08-03T07:52:19;21.50;99.90
21823;DHT22;11074;48.596;9.238;2022-08-03T07:55:05;21.60;99.90
21823;DHT22;11074;48.596;9.238;2022-08-03T07:57:31;21.70;99.90
21823;DHT22;11074;48.596;9.238;2022-08-03T07:59:57;21.70;99.90
21823;DHT22;11074;48.596;9.238;2022-08-03T08:02:24;21.80;99.90
21823;DHT22;11074;48.596;9.238;2022-08-03T08:04:49;21.90;99.90
21823;DHT22;11074;48.596;9.238;2022-08-03T08:07:15;22.00;99.90
21823;DHT22;11074;48.596;9.238;2022-08-03T08:09:41;22.00;99.90
21823;DHT22;11074;48.596;9.238;2022-08-03T08:12:07;22.10;99.90
21823;DHT22;11074;48.596;9.238;2022-08-03T08:14:34;22.10;99.90
21823;DHT22;11074;48.596;9.238;2022-08-03T08:17:00;22.20;99.90
21823;DHT22;11074;48.596;9.238;2022-08-03T08:19:26;22.30;99.90
21823;DHT22;11074;48.596;9.238;2022-08-03T08:21:52;22.30;99.90
21823;DHT22;11074;48.596;9.238;2022-08-03T08:24:18;22.40;99.90
21823;DHT22;11074;48.596;9.238;2022-08-03T08:26:43;22.50;99.90
21823;DHT22;11074;48.596;9.238;2022-08-03T08:29:09;22.60;99.90
21823;DHT22;11074;48.596;9.238;2022-08-03T08:31:35;22.60;99.90
21823;DHT22;11074;48.596;9.238;2022-08-03T08:34:00;22.80;99.90
21823;DHT22;11074;48.596;9.238;2022-08-03T08:36:31;22.80;99.90
21823;DHT22;11074;48.596;9.238;2022-08-03T08:38:58;22.80;99.90
21823;DHT22;11074;48.596;9.238;2022-08-03T08:41:24;22.90;99.90
21823;DHT22;11074;48.596;9.238;2022-08-03T08:43:49;23.00;99.90
21823;DHT22;11074;48.596;9.238;2022-08-03T08:46:17;23.10;99.90
21823;DHT22;11074;48.596;9.238;2022-08-03T08:48:45;23.10;99.90
21823;DHT22;11074;48.596;9.238;2022-08-03T08:51:13;23.10;99.90
21823;DHT22;11074;48.596;9.238;2022-08-03T08:53:44;23.20;99.90
21823;DHT22;11074;48.596;9.238;2022-08-03T08:56:14;23.20;99.90
21823;DHT22;11074;48.596;9.238;2022-08-03T08:58:47;23.30;99.90
21823;DHT22;11074;48.596;9.238;2022-08-03T09:01:19;23.40;99.90
21823;DHT22;11074;48.596;9.238;2022-08-03T09:03:46;23.40;99.90
21823;DHT22;11074;48.596;9.238;2022-08-03T09:06:12;23.50;99.90
21823;DHT22;11074;48.596;9.238;2022-08-03T09:08:39;23.60;99.90
21823;DHT22;11074;48.596;9.238;2022-08-03T09:11:05;23.60;99.90
21823;DHT22;11074;48.596;9.238;2022-08-03T09:13:34;23.70;99.90
21823;DHT22;11074;48.596;9.238;2022-08-03T09:16:17;23.70;99.90
21823;DHT22;11074;48.596;9.238;2022-08-03T09:18:49;23.70;99.90
21823;DHT22;11074;48.596;9.238;2022-08-03T09:21:22;23.90;99.90
21823;DHT22;11074;48.596;9.238;2022-08-03T09:23:51;23.90;99.90
21823;DHT22;11074;48.596;9.238;2022-08-03T09:29:09;23.90;99.90
21823;DHT22;11074;48.596;9.238;2022-08-03T09:31:37;23.90;99.90
21823;DHT22;11074;48.596;9.238;2022-08-03T09:34:07;23.90;99.90
21823;DHT22;11074;48.596;9.238;2022-08-03T09:36:47;23.90;99.90
21823;DHT22;11074;48.596;9.238;2022-08-03T09:39:20;23.90;99.90
21823;DHT22;11074;48.596;9.238;2022-08-03T09:42:03;23.90;99.90
21823;DHT22;11074;48.596;9.238;2022-08-03T09:44:42;24.10;99.90
21823;DHT22;11074;48.596;9.238;2022-08-03T09:47:10;24.10;99.90
21823;DHT22;11074;48.596;9.238;2022-08-03T09:49:40;24.20;99.90
21823;DHT22;11074;48.596;9.238;2022-08-03T09:52:15;24.20;99.90
21823;DHT22;11074;48.596;9.238;2022-08-03T09:54:44;24.30;99.90
21823;DHT22;11074;48.596;9.238;2022-08-03T09:57:21;24.40;99.90
21823;DHT22;11074;48.596;9.238;2022-08-03T09:59:50;24.50;99.90
21823;DHT22;11074;48.596;9.238;2022-08-03T10:02:22;24.60;99.90
21823;DHT22;11074;48.596;9.238;2022-08-03T10:04:50;24.60;99.90
21823;DHT22;11074;48.596;9.238;2022-08-03T10:07:21;24.60;99.90
21823;DHT22;11074;48.596;9.238;2022-08-03T10:09:59;24.70;99.90
21823;DHT22;11074;48.596;9.238;2022-08-03T10:12:27;24.80;99.90
21823;DHT22;11074;48.596;9.238;2022-08-03T10:14:54;24.70;99.90
21823;DHT22;11074;48.596;9.238;2022-08-03T10:17:20;24.70;99.90
21823;DHT22;11074;48.596;9.238;2022-08-03T10:19:47;24.90;99.90
21823;DHT22;11074;48.596;9.238;2022-08-03T10:22:15;25.20;99.90
21823;DHT22;11074;48.596;9.238;2022-08-03T10:27:34;25.60;99.90
21823;DHT22;11074;48.596;9.238;2022-08-03T10:30:07;25.50;99.90
21823;DHT22;11074;48.596;9.238;2022-08-03T10:32:58;25.60;99.90
21823;DHT22;11074;48.596;9.238;2022-08-03T10:35:29;25.40;99.90
21823;DHT22;11074;48.596;9.238;2022-08-03T10:38:01;25.40;99.90
21823;DHT22;11074;48.596;9.238;2022-08-03T10:40:37;25.60;99.90
21823;DHT22;11074;48.596;9.238;2022-08-03T10:43:17;25.80;99.90
21823;DHT22;11074;48.596;9.238;2022-08-03T10:45:45;25.70;99.90
21823;DHT22;11074;48.596;9.238;2022-08-03T10:48:12;25.80;99.90
21823;DHT22;11074;48.596;9.238;2022-08-03T10:50:39;25.80;99.90
21823;DHT22;11074;48.596;9.238;2022-08-03T10:53:08;25.80;99.90
21823;DHT22;11074;48.596;9.238;2022-08-03T10:55:44;25.80;99.90
21823;DHT22;11074;48.596;9.238;2022-08-03T11:01:01;25.90;99.90
21823;DHT22;11074;48.596;9.238;2022-08-03T11:03:31;26.10;99.90
21823;DHT22;11074;48.596;9.238;2022-08-03T11:06:23;26.10;99.90
21823;DHT22;11074;48.596;9.238;2022-08-03T11:11:38;26.20;99.90
21823;DHT22;11074;48.596;9.238;2022-08-03T11:17:07;26.20;99.90
21823;DHT22;11074;48.596;9.238;2022-08-03T11:19:42;26.20;99.90
21823;DHT22;11074;48.596;9.238;2022-08-03T11:22:10;26.20;99.90
21823;DHT22;11074;48.596;9.238;2022-08-03T11:29:58;26.50;99.90
21823;DHT22;11074;48.596;9.238;2022-08-03T11:40:40;27.20;99.90
21823;DHT22;11074;48.596;9.238;2022-08-03T11:43:42;27.50;99.90
21823;DHT22;11074;48.596;9.238;2022-08-03T11:46:06;27.50;99.90
21823;DHT22;11074;48.596;9.238;2022-08-03T11:48:39;27.80;99.90
21823;DHT22;11074;48.596;9.238;2022-08-03T11:51:23;27.70;99.90
21823;DHT22;11074;48.596;9.238;2022-08-03T11:54:01;27.60;99.90
21823;DHT22;11074;48.596;9.238;2022-08-03T11:56:46;27.60;99.90
21823;DHT22;11074;48.596;9.238;2022-08-03T11:59:13;27.90;99.90
21823;DHT22;11074;48.596;9.238;2022-08-03T12:01:39;28.00;99.90
21823;DHT22;11074;48.596;9.238;2022-08-03T12:04:05;28.10;99.90
21823;DHT22;11074;48.596;9.238;2022-08-03T12:06:31;28.20;99.90
21823;DHT22;11074;48.596;9.238;2022-08-03T12:09:19;28.00;99.90
21823;DHT22;11074;48.596;9.238;2022-08-03T12:11:49;27.60;99.90
21823;DHT22;11074;48.596;9.238;2022-08-03T12:14:17;27.40;99.90
21823;DHT22;11074;48.596;9.238;2022-08-03T12:16:47;27.50;99.90
21823;DHT22;11074;48.596;9.238;2022-08-03T12:19:13;27.90;99.90
21823;DHT22;11074;48.596;9.238;2022-08-03T12:21:49;28.00;99.90
21823;DHT22;11074;48.596;9.238;2022-08-03T12:24:16;28.10;99.90
21823;DHT22;11074;48.596;9.238;2022-08-03T12:26:49;28.20;99.90
21823;DHT22;11074;48.596;9.238;2022-08-03T12:29:24;28.40;99.90
21823;DHT22;11074;48.596;9.238;2022-08-03T12:31:50;28.70;99.90
21823;DHT22;11074;48.596;9.238;2022-08-03T12:34:16;28.70;99.90
21823;DHT22;11074;48.596;9.238;2022-08-03T12:36:50;28.60;99.90
21823;DHT22;11074;48.596;9.238;2022-08-03T12:39:23;28.70;99.90
21823;DHT22;11074;48.596;9.238;2022-08-03T12:41:54;28.70;99.90
21823;DHT22;11074;48.596;9.238;2022-08-03T12:44:34;28.80;99.90
21823;DHT22;11074;48.596;9.238;2022-08-03T12:47:01;28.90;99.90
21823;DHT22;11074;48.596;9.238;2022-08-03T12:49:28;28.90;99.90
21823;DHT22;11074;48.596;9.238;2022-08-03T12:52:12;28.70;99.90
21823;DHT22;11074;48.596;9.238;2022-08-03T12:54:38;28.70;99.90
21823;DHT22;11074;48.596;9.238;2022-08-03T12:57:05;28.80;99.90
21823;DHT22;11074;48.596;9.238;2022-08-03T12:59:35;29.00;99.90
21823;DHT22;11074;48.596;9.238;2022-08-03T13:02:02;28.70;99.90
21823;DHT22;11074;48.596;9.238;2022-08-03T13:04:30;28.50;99.90
21823;DHT22;11074;48.596;9.238;2022-08-03T13:07:05;28.20;99.90
21823;DHT22;11074;48.596;9.238;2022-08-03T13:09:50;28.40;99.90
21823;DHT22;11074;48.596;9.238;2022-08-03T13:12:19;28.70;99.90
21823;DHT22;11074;48.596;9.238;2022-08-03T13:14:48;29.00;99.90
21823;DHT22;11074;48.596;9.238;2022-08-03T13:17:16;29.30;99.90
21823;DHT22;11074;48.596;9.238;2022-08-03T13:19:43;29.60;99.90
21823;DHT22;11074;48.596;9.238;2022-08-03T13:24:41;29.80;99.90
21823;DHT22;11074;48.596;9.238;2022-08-03T13:27:08;30.00;99.90
21823;DHT22;11074;48.596;9.238;2022-08-03T13:29:34;29.80;99.90
21823;DHT22;11074;48.596;9.238;2022-08-03T13:32:01;29.80;99.90
21823;DHT22;11074;48.596;9.238;2022-08-03T13:34:27;29.70;99.90
21823;DHT22;11074;48.596;9.238;2022-08-03T13:36:53;29.70;99.90
21823;DHT22;11074;48.596;9.238;2022-08-03T13:39:19;29.70;99.90
21823;DHT22;11074;48.596;9.238;2022-08-03T13:41:45;29.70;99.90
21823;DHT22;11074;48.596;9.238;2022-08-03T13:44:12;29.80;99.90
21823;DHT22;11074;48.596;9.238;2022-08-03T13:46:37;29.70;99.90
21823;DHT22;11074;48.596;9.238;2022-08-03T13:49:04;29.70;99.90
21823;DHT22;11074;48.596;9.238;2022-08-03T13:51:31;29.90;99.90
21823;DHT22;11074;48.596;9.238;2022-08-03T13:53:56;30.00;99.90
21823;DHT22;11074;48.596;9.238;2022-08-03T13:56:25;30.10;99.90
21823;DHT22;11074;48.596;9.238;2022-08-03T13:58:51;30.10;99.90
21823;DHT22;11074;48.596;9.238;2022-08-03T14:01:17;30.30;99.90
21823;DHT22;11074;48.596;9.238;2022-08-03T14:03:43;30.30;99.90
21823;DHT22;11074;48.596;9.238;2022-08-03T14:06:09;30.40;99.90
21823;DHT22;11074;48.596;9.238;2022-08-03T14:08:34;30.40;99.90
21823;DHT22;11074;48.596;9.238;2022-08-03T14:11:00;30.60;99.90
21823;DHT22;11074;48.596;9.238;2022-08-03T14:13:26;30.70;99.90
21823;DHT22;11074;48.596;9.238;2022-08-03T14:15:51;30.70;99.90
21823;DHT22;11074;48.596;9.238;2022-08-03T14:18:20;30.50;99.90
21823;DHT22;11074;48.596;9.238;2022-08-03T14:20:47;30.40;99.90
21823;DHT22;11074;48.596;9.238;2022-08-03T14:23:13;30.40;99.90
21823;DHT22;11074;48.596;9.238;2022-08-03T14:25:39;30.70;99.90
21823;DHT22;11074;48.596;9.238;2022-08-03T14:28:08;30.90;99.90
21823;DHT22;11074;48.596;9.238;2022-08-03T14:30:34;30.80;99.90
21823;DHT22;11074;48.596;9.238;2022-08-03T14:33:00;30.90;99.90
21823;DHT22;11074;48.596;9.238;2022-08-03T14:35:26;31.00;99.90
21823;DHT22;11074;48.596;9.238;2022-08-03T14:37:52;31.00;99.90
21823;DHT22;11074;48.596;9.238;2022-08-03T14:40:18;30.90;99.90
21823;DHT22;11074;48.596;9.238;2022-08-03T14:42:44;30.90;99.90
21823;DHT22;11074;48.596;9.238;2022-08-03T14:45:10;30.80;99.90
21823;DHT22;11074;48.596;9.238;2022-08-03T14:47:37;30.80;99.90
21823;DHT22;11074;48.596;9.238;2022-08-03T14:50:05;31.00;99.90
21823;DHT22;11074;48.596;9.238;2022-08-03T14:52:32;31.00;99.90
21823;DHT22;11074;48.596;9.238;2022-08-03T14:54:58;30.90;99.90
21823;DHT22;11074;48.596;9.238;2022-08-03T14:57:25;31.00;99.90
21823;DHT22;11074;48.596;9.238;2022-08-03T14:59:51;31.00;99.90
21823;DHT22;11074;48.596;9.238;2022-08-03T15:02:17;31.00;99.90
21823;DHT22;11074;48.596;9.238;2022-08-03T15:04:43;31.10;99.90
21823;DHT22;11074;48.596;9.238;2022-08-03T15:07:08;31.20;99.90
21823;DHT22;11074;48.596;9.238;2022-08-03T15:09:34;31.20;99.90
21823;DHT22;11074;48.596;9.238;2022-08-03T15:12:00;31.30;99.90
21823;DHT22;11074;48.596;9.238;2022-08-03T15:14:25;31.40;99.90
21823;DHT22;11074;48.596;9.238;2022-08-03T15:16:51;31.30;99.90
21823;DHT22;11074;48.596;9.238;2022-08-03T15:19:17;31.40;99.90
21823;DHT22;11074;48.596;9.238;2022-08-03T15:21:43;31.30;99.90
21823;DHT22;11074;48.596;9.238;2022-08-03T15:24:08;31.30;99.90
21823;DHT22;11074;48.596;9.238;2022-08-03T15:26:34;31.30;99.90
21823;DHT22;11074;48.596;9.238;2022-08-03T15:29:00;31.20;99.90
21823;DHT22;11074;48.596;9.238;2022-08-03T15:31:25;31.20;99.90
21823;DHT22;11074;48.596;9.238;2022-08-03T15:33:52;31.40;99.90
21823;DHT22;11074;48.596;9.238;2022-08-03T15:36:17;31.50;99.90
21823;DHT22;11074;48.596;9.238;2022-08-03T15:38:44;31.50;99.90
21823;DHT22;11074;48.596;9.238;2022-08-03T15:41:12;31.50;99.90
21823;DHT22;11074;48.596;9.238;2022-08-03T15:43:38;31.50;99.90
21823;DHT22;11074;48.596;9.238;2022-08-03T15:46:04;31.40;99.90
21823;DHT22;11074;48.596;9.238;2022-08-03T15:48:30;31.40;99.90
21823;DHT22;11074;48.596;9.238;2022-08-03T15:50:55;31.40;99.90
21823;DHT22;11074;48.596;9.238;2022-08-03T15:53:21;31.40;99.90
21823;DHT22;11074;48.596;9.238;2022-08-03T15:55:47;31.40;99.90
21823;DHT22;11074;48.596;9.238;2022-08-03T15:58:13;31.50;99.90
21823;DHT22;11074;48.596;9.238;2022-08-03T16:00:39;31.50;99.90
21823;DHT22;11074;48.596;9.238;2022-08-03T16:03:06;31.50;99.90
21823;DHT22;11074;48.596;9.238;2022-08-03T16:05:31;31.50;99.90
21823;DHT22;11074;48.596;9.238;2022-08-03T16:07:57;31.50;99.90
21823;DHT22;11074;48.596;9.238;2022-08-03T16:10:23;31.50;99.90
21823;DHT22;11074;48.596;9.238;2022-08-03T16:12:52;31.40;99.90
21823;DHT22;11074;48.596;9.238;2022-08-03T16:15:18;31.50;99.90
21823;DHT22;11074;48.596;9.238;2022-08-03T16:17:44;31.50;99.90